sensor_id;sensor_type;location;lat;lon;timestamp;P1;durP1;ratioP1;P2;durP2;ratioP2
9485;SDS011;4781;48.776;9.200;2022-12-20T00:01:29;8.60;;;4.40;;
9485;SDS011;4781;48.776;9.200;2022-12-20T00:04:00;8.53;;;4.22;;
9485;SDS011;4781;48.776;9.200;2022-12-20T00:06:36;11.35;;;4.30;;
9485;SDS011;4781;48.776;9.200;2022-12-20T00:09:26;8.00;;;4.00;;
9485;SDS011;4781;48.776;9.200;2022-12-20T00:11:54;10.78;;;4.58;;
9485;SDS011;4781;48.776;9.200;2022-12-20T00:14:22;6.92;;;4.03;;
9485;SDS011;4781;48.776;9.200;2022-12-20T00:16:51;10.35;;;4.95;;
9485;SDS011;4781;48.776;9.200;2022-12-20T00:19:19;8.23;;;4.28;;
9485;SDS011;4781;48.776;9.200;2022-12-20T00:21:48;8.93;;;4.50;;
9485;SDS011;4781;48.776;9.200;2022-12-20T00:24:16;10.30;;;4.78;;
9485;SDS011;4781;48.776;9.200;2022-12-20T00:26:44;11.00;;;5.05;;
9485;SDS011;4781;48.776;9.200;2022-12-20T00:29:13;10.18;;;5.15;;
9485;SDS011;4781;48.776;9.200;2022-12-20T00:31:41;12.25;;;5.25;;
9485;SDS011;4781;48.776;9.200;2022-12-20T00:34:10;12.75;;;5.35;;
9485;SDS011;4781;48.776;9.200;2022-12-20T00:36:38;10.35;;;6.00;;
9485;SDS011;4781;48.776;9.200;2022-12-20T00:39:07;9.05;;;4.92;;
9485;SDS011;4781;48.776;9.200;2022-12-20T00:41:36;8.58;;;4.50;;
9485;SDS011;4781;48.776;9.200;2022-12-20T00:44:05;8.38;;;5.03;;
9485;SDS011;4781;48.776;9.200;2022-12-20T00:46:33;9.50;;;4.30;;
9485;SDS011;4781;48.776;9.200;2022-12-20T00:49:02;8.98;;;4.20;;
9485;SDS011;4781;48.776;9.200;2022-12-20T00:51:32;8.88;;;4.10;;
9485;SDS011;4781;48.776;9.200;2022-12-20T00:54:00;8.78;;;4.70;;
9485;SDS011;4781;48.776;9.200;2022-12-20T00:56:28;8.18;;;3.85;;
9485;SDS011;4781;48.776;9.200;2022-12-20T00:58:57;8.88;;;4.20;;
9485;SDS011;4781;48.776;9.200;2022-12-20T01:01:27;7.87;;;4.25;;
9485;SDS011;4781;48.776;9.200;2022-12-20T01:03:59;10.08;;;4.30;;
9485;SDS011;4781;48.776;9.200;2022-12-20T01:06:28;9.53;;;4.78;;
9485;SDS011;4781;48.776;9.200;2022-12-20T01:08:57;9.93;;;4.03;;
9485;SDS011;4781;48.776;9.200;2022-12-20T01:11:27;7.58;;;4.30;;
9485;SDS011;4781;48.776;9.200;2022-12-20T01:14:02;10.60;;;4.97;;
9485;SDS011;4781;48.776;9.200;2022-12-20T01:16:35;10.68;;;5.40;;
9485;SDS011;4781;48.776;9.200;2022-12-20T01:19:07;10.03;;;4.92;;
9485;SDS011;4781;48.776;9.200;2022-12-20T01:21:38;11.18;;;5.65;;
9485;SDS011;4781;48.776;9.200;2022-12-20T01:24:14;9.40;;;5.08;;
9485;SDS011;4781;48.776;9.200;2022-12-20T01:26:39;10.75;;;5.08;;
9485;SDS011;4781;48.776;9.200;2022-12-20T01:29:08;10.32;;;5.12;;
9485;SDS011;4781;48.776;9.200;2022-12-20T01:31:36;11.90;;;6.92;;
9485;SDS011;4781;48.776;9.200;2022-12-20T01:34:05;13.25;;;6.62;;
9485;SDS011;4781;48.776;9.200;2022-12-20T01:36:34;11.57;;;6.97;;
9485;SDS011;4781;48.776;9.200;2022-12-20T01:39:05;15.08;;;7.55;;
9485;SDS011;4781;48.776;9.200;2022-12-20T01:41:39;12.03;;;6.28;;
9485;SDS011;4781;48.776;9.200;2022-12-20T01:46:48;10.40;;;5.10;;
9485;SDS011;4781;48.776;9.200;2022-12-20T01:49:19;10.40;;;5.92;;
9485;SDS011;4781;48.776;9.200;2022-12-20T01:52:16;10.00;;;4.90;;
9485;SDS011;4781;48.776;9.200;2022-12-20T01:54:47;10.60;;;5.37;;
9485;SDS011;4781;48.776;9.200;2022-12-20T01:57:21;11.63;;;5.35;;
9485;SDS011;4781;48.776;9.200;2022-12-20T01:59:59;11.00;;;5.22;;
9485;SDS011;4781;48.776;9.200;2022-12-20T02:02:29;17.73;;;6.78;;
9485;SDS011;4781;48.776;9.200;2022-12-20T02:04:58;11.30;;;6.53;;
9485;SDS011;4781;48.776;9.200;2022-12-20T02:07:27;13.18;;;7.05;;
9485;SDS011;4781;48.776;9.200;2022-12-20T02:09:58;11.93;;;5.80;;
9485;SDS011;4781;48.776;9.200;2022-12-20T02:12:31;12.58;;;7.05;;
9485;SDS011;4781;48.776;9.200;2022-12-20T02:26:39;11.00;;;6.40;;
9485;SDS011;4781;48.776;9.200;2022-12-20T02:29:35;13.08;;;6.33;;
9485;SDS011;4781;48.776;9.200;2022-12-20T02:32:19;12.60;;;6.80;;
9485;SDS011;4781;48.776;9.200;2022-12-20T02:34:50;15.40;;;7.40;;
9485;SDS011;4781;48.776;9.200;2022-12-20T02:37:19;13.78;;;6.75;;
9485;SDS011;4781;48.776;9.200;2022-12-20T02:39:48;12.85;;;6.60;;
9485;SDS011;4781;48.776;9.200;2022-12-20T02:42:18;11.28;;;6.35;;
9485;SDS011;4781;48.776;9.200;2022-12-20T02:44:53;9.65;;;5.65;;
9485;SDS011;4781;48.776;9.200;2022-12-20T02:47:52;13.43;;;6.72;;
9485;SDS011;4781;48.776;9.200;2022-12-20T02:50:31;10.20;;;6.10;;
9485;SDS011;4781;48.776;9.200;2022-12-20T02:53:03;15.30;;;6.45;;
9485;SDS011;4781;48.776;9.200;2022-12-20T02:55:46;15.13;;;6.87;;
9485;SDS011;4781;48.776;9.200;2022-12-20T02:58:36;12.82;;;6.50;;
9485;SDS011;4781;48.776;9.200;2022-12-20T03:01:13;11.90;;;6.83;;
9485;SDS011;4781;48.776;9.200;2022-12-20T03:03:44;11.95;;;6.75;;
9485;SDS011;4781;48.776;9.200;2022-12-20T03:06:12;9.65;;;5.72;;
9485;SDS011;4781;48.776;9.200;2022-12-20T03:08:41;13.08;;;6.28;;
9485;SDS011;4781;48.776;9.200;2022-12-20T03:11:09;11.63;;;6.05;;
9485;SDS011;4781;48.776;9.200;2022-12-20T03:13:38;11.80;;;5.67;;
9485;SDS011;4781;48.776;9.200;2022-12-20T03:16:06;10.93;;;5.72;;
9485;SDS011;4781;48.776;9.200;2022-12-20T03:18:35;14.70;;;6.37;;
9485;SDS011;4781;48.776;9.200;2022-12-20T03:21:04;8.03;;;4.97;;
9485;SDS011;4781;48.776;9.200;2022-12-20T03:23:32;10.13;;;5.40;;
9485;SDS011;4781;48.776;9.200;2022-12-20T03:26:01;12.90;;;7.28;;
9485;SDS011;4781;48.776;9.200;2022-12-20T03:28:29;12.35;;;6.30;;
9485;SDS011;4781;48.776;9.200;2022-12-20T03:30:58;12.33;;;6.22;;
9485;SDS011;4781;48.776;9.200;2022-12-20T03:33:26;13.88;;;6.22;;
9485;SDS011;4781;48.776;9.200;2022-12-20T03:35:54;12.50;;;5.60;;
9485;SDS011;4781;48.776;9.200;2022-12-20T03:38:23;11.33;;;6.50;;
9485;SDS011;4781;48.776;9.200;2022-12-20T03:40:51;11.25;;;6.72;;
9485;SDS011;4781;48.776;9.200;2022-12-20T03:43:19;14.78;;;5.70;;
9485;SDS011;4781;48.776;9.200;2022-12-20T03:45:48;9.15;;;5.42;;
9485;SDS011;4781;48.776;9.200;2022-12-20T03:48:16;11.65;;;5.80;;
9485;SDS011;4781;48.776;9.200;2022-12-20T03:50:45;8.53;;;4.80;;
9485;SDS011;4781;48.776;9.200;2022-12-20T03:53:13;9.58;;;4.65;;
9485;SDS011;4781;48.776;9.200;2022-12-20T03:55:41;9.60;;;4.80;;
9485;SDS011;4781;48.776;9.200;2022-12-20T03:58:10;9.43;;;4.35;;
9485;SDS011;4781;48.776;9.200;2022-12-20T04:00:38;10.65;;;5.87;;
9485;SDS011;4781;48.776;9.200;2022-12-20T04:03:06;11.38;;;6.67;;
9485;SDS011;4781;48.776;9.200;2022-12-20T04:05:35;11.35;;;6.30;;
9485;SDS011;4781;48.776;9.200;2022-12-20T04:08:03;13.80;;;6.72;;
9485;SDS011;4781;48.776;9.200;2022-12-20T04:10:32;12.55;;;6.00;;
9485;SDS011;4781;48.776;9.200;2022-12-20T04:13:04;12.07;;;5.90;;
9485;SDS011;4781;48.776;9.200;2022-12-20T04:15:32;12.60;;;5.60;;
9485;SDS011;4781;48.776;9.200;2022-12-20T04:18:01;10.88;;;5.50;;
9485;SDS011;4781;48.776;9.200;2022-12-20T04:20:29;11.12;;;5.58;;
9485;SDS011;4781;48.776;9.200;2022-12-20T04:22:57;12.05;;;6.53;;
9485;SDS011;4781;48.776;9.200;2022-12-20T04:25:26;13.13;;;5.75;;
9485;SDS011;4781;48.776;9.200;2022-12-20T04:27:54;11.03;;;6.35;;
9485;SDS011;4781;48.776;9.200;2022-12-20T04:30:23;11.50;;;5.93;;
9485;SDS011;4781;48.776;9.200;2022-12-20T04:32:51;11.15;;;5.62;;
9485;SDS011;4781;48.776;9.200;2022-12-20T04:35:19;10.20;;;5.95;;
9485;SDS011;4781;48.776;9.200;2022-12-20T04:37:48;13.98;;;5.95;;
9485;SDS011;4781;48.776;9.200;2022-12-20T04:40:16;8.48;;;5.00;;
9485;SDS011;4781;48.776;9.200;2022-12-20T04:42:44;10.53;;;5.08;;
9485;SDS011;4781;48.776;9.200;2022-12-20T04:45:13;9.33;;;5.45;;
9485;SDS011;4781;48.776;9.200;2022-12-20T04:47:41;10.00;;;5.58;;
9485;SDS011;4781;48.776;9.200;2022-12-20T04:50:10;8.40;;;5.12;;
9485;SDS011;4781;48.776;9.200;2022-12-20T04:52:38;13.95;;;5.47;;
9485;SDS011;4781;48.776;9.200;2022-12-20T04:55:24;10.40;;;6.22;;
9485;SDS011;4781;48.776;9.200;2022-12-20T04:57:52;9.08;;;5.53;;
9485;SDS011;4781;48.776;9.200;2022-12-20T05:00:21;10.77;;;5.90;;
9485;SDS011;4781;48.776;9.200;2022-12-20T05:02:49;13.35;;;6.50;;
9485;SDS011;4781;48.776;9.200;2022-12-20T05:05:18;10.70;;;5.85;;
9485;SDS011;4781;48.776;9.200;2022-12-20T05:07:46;12.13;;;5.92;;
9485;SDS011;4781;48.776;9.200;2022-12-20T05:10:14;7.95;;;3.75;;
9485;SDS011;4781;48.776;9.200;2022-12-20T05:12:43;8.45;;;4.87;;
9485;SDS011;4781;48.776;9.200;2022-12-20T05:15:11;6.53;;;3.22;;
9485;SDS011;4781;48.776;9.200;2022-12-20T05:17:40;8.70;;;4.25;;
9485;SDS011;4781;48.776;9.200;2022-12-20T05:20:08;8.00;;;4.03;;
9485;SDS011;4781;48.776;9.200;2022-12-20T05:22:37;7.22;;;4.00;;
9485;SDS011;4781;48.776;9.200;2022-12-20T05:25:26;7.65;;;3.40;;
9485;SDS011;4781;48.776;9.200;2022-12-20T05:28:12;7.15;;;3.42;;
9485;SDS011;4781;48.776;9.200;2022-12-20T05:30:40;6.72;;;3.65;;
9485;SDS011;4781;48.776;9.200;2022-12-20T05:33:09;7.30;;;3.70;;
9485;SDS011;4781;48.776;9.200;2022-12-20T05:35:37;6.78;;;2.80;;
9485;SDS011;4781;48.776;9.200;2022-12-20T05:38:06;4.60;;;2.55;;
9485;SDS011;4781;48.776;9.200;2022-12-20T05:40:34;6.28;;;3.20;;
9485;SDS011;4781;48.776;9.200;2022-12-20T05:43:03;6.53;;;3.30;;
9485;SDS011;4781;48.776;9.200;2022-12-20T05:45:32;7.75;;;3.22;;
9485;SDS011;4781;48.776;9.200;2022-12-20T05:48:01;8.65;;;4.65;;
9485;SDS011;4781;48.776;9.200;2022-12-20T05:50:29;8.00;;;4.30;;
9485;SDS011;4781;48.776;9.200;2022-12-20T05:52:58;9.20;;;4.72;;
9485;SDS011;4781;48.776;9.200;2022-12-20T05:55:26;7.50;;;4.37;;
9485;SDS011;4781;48.776;9.200;2022-12-20T05:57:55;10.18;;;4.62;;
9485;SDS011;4781;48.776;9.200;2022-12-20T06:00:23;9.40;;;5.60;;
9485;SDS011;4781;48.776;9.200;2022-12-20T06:02:52;9.38;;;5.15;;
9485;SDS011;4781;48.776;9.200;2022-12-20T06:05:20;13.13;;;5.28;;
9485;SDS011;4781;48.776;9.200;2022-12-20T06:07:49;10.30;;;5.00;;
9485;SDS011;4781;48.776;9.200;2022-12-20T06:10:17;14.35;;;5.85;;
9485;SDS011;4781;48.776;9.200;2022-12-20T06:12:45;8.08;;;5.10;;
9485;SDS011;4781;48.776;9.200;2022-12-20T06:15:14;8.03;;;4.97;;
9485;SDS011;4781;48.776;9.200;2022-12-20T06:17:43;5.62;;;3.25;;
9485;SDS011;4781;48.776;9.200;2022-12-20T06:20:11;5.15;;;2.80;;
9485;SDS011;4781;48.776;9.200;2022-12-20T06:22:40;6.75;;;3.17;;
9485;SDS011;4781;48.776;9.200;2022-12-20T06:25:08;5.22;;;2.30;;
9485;SDS011;4781;48.776;9.200;2022-12-20T06:27:37;6.87;;;2.87;;
9485;SDS011;4781;48.776;9.200;2022-12-20T06:30:07;6.55;;;2.65;;
9485;SDS011;4781;48.776;9.200;2022-12-20T06:32:36;4.75;;;2.70;;
9485;SDS011;4781;48.776;9.200;2022-12-20T06:35:05;12.25;;;4.65;;
9485;SDS011;4781;48.776;9.200;2022-12-20T06:37:34;35.83;;;13.60;;
9485;SDS011;4781;48.776;9.200;2022-12-20T06:40:04;27.60;;;10.68;;
9485;SDS011;4781;48.776;9.200;2022-12-20T06:42:35;23.95;;;10.95;;
9485;SDS011;4781;48.776;9.200;2022-12-20T06:45:03;11.60;;;6.08;;
9485;SDS011;4781;48.776;9.200;2022-12-20T06:47:32;9.10;;;4.97;;
9485;SDS011;4781;48.776;9.200;2022-12-20T06:50:02;8.35;;;4.05;;
9485;SDS011;4781;48.776;9.200;2022-12-20T06:52:32;8.48;;;3.22;;
9485;SDS011;4781;48.776;9.200;2022-12-20T06:55:01;6.55;;;3.00;;
9485;SDS011;4781;48.776;9.200;2022-12-20T06:57:29;5.40;;;2.83;;
9485;SDS011;4781;48.776;9.200;2022-12-20T06:59:58;5.40;;;2.65;;
9485;SDS011;4781;48.776;9.200;2022-12-20T07:02:26;9.00;;;2.85;;
9485;SDS011;4781;48.776;9.200;2022-12-20T07:04:54;5.20;;;2.67;;
9485;SDS011;4781;48.776;9.200;2022-12-20T07:07:23;5.53;;;2.75;;
9485;SDS011;4781;48.776;9.200;2022-12-20T07:09:51;9.25;;;2.20;;
9485;SDS011;4781;48.776;9.200;2022-12-20T07:12:20;6.00;;;2.85;;
9485;SDS011;4781;48.776;9.200;2022-12-20T07:14:49;6.03;;;2.75;;
9485;SDS011;4781;48.776;9.200;2022-12-20T07:17:17;5.50;;;2.47;;
9485;SDS011;4781;48.776;9.200;2022-12-20T07:19:46;4.58;;;2.47;;
9485;SDS011;4781;48.776;9.200;2022-12-20T07:22:14;4.92;;;2.83;;
9485;SDS011;4781;48.776;9.200;2022-12-20T07:24:42;7.62;;;2.77;;
9485;SDS011;4781;48.776;9.200;2022-12-20T07:27:12;8.95;;;2.70;;
9485;SDS011;4781;48.776;9.200;2022-12-20T07:29:41;7.75;;;2.62;;
9485;SDS011;4781;48.776;9.200;2022-12-20T07:32:10;6.47;;;3.20;;
9485;SDS011;4781;48.776;9.200;2022-12-20T07:34:39;6.08;;;2.98;;
9485;SDS011;4781;48.776;9.200;2022-12-20T07:37:07;7.30;;;2.95;;
9485;SDS011;4781;48.776;9.200;2022-12-20T07:39:36;4.53;;;2.62;;
9485;SDS011;4781;48.776;9.200;2022-12-20T07:42:04;5.83;;;3.08;;
9485;SDS011;4781;48.776;9.200;2022-12-20T07:44:33;7.90;;;2.92;;
9485;SDS011;4781;48.776;9.200;2022-12-20T07:47:02;8.60;;;3.33;;
9485;SDS011;4781;48.776;9.200;2022-12-20T07:49:30;5.20;;;2.62;;
9485;SDS011;4781;48.776;9.200;2022-12-20T07:52:00;4.78;;;2.52;;
9485;SDS011;4781;48.776;9.200;2022-12-20T07:54:32;5.10;;;2.35;;
9485;SDS011;4781;48.776;9.200;2022-12-20T07:57:04;8.85;;;3.15;;
9485;SDS011;4781;48.776;9.200;2022-12-20T07:59:39;6.50;;;3.33;;
9485;SDS011;4781;48.776;9.200;2022-12-20T08:02:12;9.48;;;3.50;;
9485;SDS011;4781;48.776;9.200;2022-12-20T08:04:43;5.10;;;2.42;;
9485;SDS011;4781;48.776;9.200;2022-12-20T08:07:13;4.17;;;2.30;;
9485;SDS011;4781;48.776;9.200;2022-12-20T08:09:42;6.30;;;2.58;;
9485;SDS011;4781;48.776;9.200;2022-12-20T08:12:12;10.63;;;2.92;;
9485;SDS011;4781;48.776;9.200;2022-12-20T08:14:43;6.50;;;2.83;;
9485;SDS011;4781;48.776;9.200;2022-12-20T08:17:12;5.25;;;2.42;;
9485;SDS011;4781;48.776;9.200;2022-12-20T08:19:40;6.87;;;2.87;;
9485;SDS011;4781;48.776;9.200;2022-12-20T08:22:08;4.75;;;2.67;;
9485;SDS011;4781;48.776;9.200;2022-12-20T08:24:37;4.42;;;2.47;;
9485;SDS011;4781;48.776;9.200;2022-12-20T08:27:05;5.83;;;2.62;;
9485;SDS011;4781;48.776;9.200;2022-12-20T08:29:34;4.65;;;2.25;;
9485;SDS011;4781;48.776;9.200;2022-12-20T08:32:03;3.77;;;1.90;;
9485;SDS011;4781;48.776;9.200;2022-12-20T08:34:31;6.78;;;2.85;;
9485;SDS011;4781;48.776;9.200;2022-12-20T08:37:00;7.12;;;2.70;;
9485;SDS011;4781;48.776;9.200;2022-12-20T08:39:28;7.42;;;3.67;;
9485;SDS011;4781;48.776;9.200;2022-12-20T08:41:57;4.65;;;2.50;;
9485;SDS011;4781;48.776;9.200;2022-12-20T08:44:25;6.87;;;3.05;;
9485;SDS011;4781;48.776;9.200;2022-12-20T08:46:53;5.80;;;2.35;;
9485;SDS011;4781;48.776;9.200;2022-12-20T08:49:22;5.45;;;2.70;;
9485;SDS011;4781;48.776;9.200;2022-12-20T08:51:50;4.53;;;2.22;;
9485;SDS011;4781;48.776;9.200;2022-12-20T08:54:19;3.83;;;2.05;;
9485;SDS011;4781;48.776;9.200;2022-12-20T08:56:47;5.05;;;2.50;;
9485;SDS011;4781;48.776;9.200;2022-12-20T08:59:15;4.92;;;2.12;;
9485;SDS011;4781;48.776;9.200;2022-12-20T09:01:45;5.75;;;2.30;;
9485;SDS011;4781;48.776;9.200;2022-12-20T09:04:13;4.80;;;2.22;;
9485;SDS011;4781;48.776;9.200;2022-12-20T09:06:42;4.30;;;2.30;;
9485;SDS011;4781;48.776;9.200;2022-12-20T09:09:10;5.65;;;2.47;;
9485;SDS011;4781;48.776;9.200;2022-12-20T09:11:39;5.28;;;2.47;;
9485;SDS011;4781;48.776;9.200;2022-12-20T09:14:07;4.95;;;2.65;;
9485;SDS011;4781;48.776;9.200;2022-12-20T09:16:36;6.45;;;3.17;;
9485;SDS011;4781;48.776;9.200;2022-12-20T09:19:05;7.20;;;2.80;;
9485;SDS011;4781;48.776;9.200;2022-12-20T09:21:33;5.22;;;3.02;;
9485;SDS011;4781;48.776;9.200;2022-12-20T09:24:02;7.45;;;3.33;;
9485;SDS011;4781;48.776;9.200;2022-12-20T09:26:31;5.25;;;3.22;;
9485;SDS011;4781;48.776;9.200;2022-12-20T09:29:00;5.78;;;3.05;;
9485;SDS011;4781;48.776;9.200;2022-12-20T09:31:29;5.55;;;2.90;;
9485;SDS011;4781;48.776;9.200;2022-12-20T09:33:57;5.28;;;2.40;;
9485;SDS011;4781;48.776;9.200;2022-12-20T09:36:27;4.45;;;2.10;;
9485;SDS011;4781;48.776;9.200;2022-12-20T09:38:56;4.40;;;2.27;;
9485;SDS011;4781;48.776;9.200;2022-12-20T09:41:30;4.05;;;2.12;;
9485;SDS011;4781;48.776;9.200;2022-12-20T09:44:13;4.05;;;1.72;;
9485;SDS011;4781;48.776;9.200;2022-12-20T09:46:46;5.10;;;2.45;;
9485;SDS011;4781;48.776;9.200;2022-12-20T09:49:18;6.17;;;2.02;;
9485;SDS011;4781;48.776;9.200;2022-12-20T09:51:54;4.70;;;2.00;;
9485;SDS011;4781;48.776;9.200;2022-12-20T09:54:39;7.22;;;2.25;;
9485;SDS011;4781;48.776;9.200;2022-12-20T10:02:46;4.53;;;2.30;;
9485;SDS011;4781;48.776;9.200;2022-12-20T10:05:23;4.00;;;1.95;;
9485;SDS011;4781;48.776;9.200;2022-12-20T10:07:54;6.53;;;2.30;;
9485;SDS011;4781;48.776;9.200;2022-12-20T10:21:54;5.22;;;2.17;;
9485;SDS011;4781;48.776;9.200;2022-12-20T10:24:55;5.62;;;2.52;;
9485;SDS011;4781;48.776;9.200;2022-12-20T10:27:43;6.15;;;1.92;;
9485;SDS011;4781;48.776;9.200;2022-12-20T10:30:14;7.50;;;2.70;;
9485;SDS011;4781;48.776;9.200;2022-12-20T10:32:47;5.50;;;2.40;;
9485;SDS011;4781;48.776;9.200;2022-12-20T10:38:05;4.92;;;2.25;;
9485;SDS011;4781;48.776;9.200;2022-12-20T10:40:42;7.67;;;3.52;;
9485;SDS011;4781;48.776;9.200;2022-12-20T10:43:23;9.20;;;3.47;;
9485;SDS011;4781;48.776;9.200;2022-12-20T10:45:56;9.90;;;3.60;;
9485;SDS011;4781;48.776;9.200;2022-12-20T10:53:57;14.03;;;5.42;;
9485;SDS011;4781;48.776;9.200;2022-12-20T10:56:29;11.55;;;4.92;;
9485;SDS011;4781;48.776;9.200;2022-12-20T10:59:02;8.18;;;3.30;;
9485;SDS011;4781;48.776;9.200;2022-12-20T11:01:46;7.10;;;3.70;;
9485;SDS011;4781;48.776;9.200;2022-12-20T11:04:27;8.15;;;4.62;;
9485;SDS011;4781;48.776;9.200;2022-12-20T11:07:01;12.03;;;6.30;;
9485;SDS011;4781;48.776;9.200;2022-12-20T11:09:33;10.70;;;6.28;;
9485;SDS011;4781;48.776;9.200;2022-12-20T11:12:05;12.68;;;5.78;;
9485;SDS011;4781;48.776;9.200;2022-12-20T11:14:39;12.98;;;5.87;;
9485;SDS011;4781;48.776;9.200;2022-12-20T11:38:12;10.93;;;4.15;;
9485;SDS011;4781;48.776;9.200;2022-12-20T11:46:26;9.70;;;4.62;;
9485;SDS011;4781;48.776;9.200;2022-12-20T12:00:45;7.83;;;3.80;;
9485;SDS011;4781;48.776;9.200;2022-12-20T12:03:35;7.95;;;3.77;;
9485;SDS011;4781;48.776;9.200;2022-12-20T12:06:10;9.48;;;3.87;;
9485;SDS011;4781;48.776;9.200;2022-12-20T12:09:04;10.58;;;4.22;;
9485;SDS011;4781;48.776;9.200;2022-12-20T12:11:39;5.92;;;3.45;;
9485;SDS011;4781;48.776;9.200;2022-12-20T12:14:30;4.95;;;2.83;;
9485;SDS011;4781;48.776;9.200;2022-12-20T12:17:25;5.87;;;3.00;;
9485;SDS011;4781;48.776;9.200;2022-12-20T12:20:21;6.75;;;2.92;;
9485;SDS011;4781;48.776;9.200;2022-12-20T12:23:11;6.17;;;2.85;;
9485;SDS011;4781;48.776;9.200;2022-12-20T12:25:51;7.08;;;2.90;;
9485;SDS011;4781;48.776;9.200;2022-12-20T12:28:20;4.90;;;2.75;;
9485;SDS011;4781;48.776;9.200;2022-12-20T12:30:54;5.22;;;2.72;;
9485;SDS011;4781;48.776;9.200;2022-12-20T12:33:56;5.50;;;2.90;;
9485;SDS011;4781;48.776;9.200;2022-12-20T12:39:26;9.48;;;3.15;;
9485;SDS011;4781;48.776;9.200;2022-12-20T12:42:17;6.53;;;2.67;;
9485;SDS011;4781;48.776;9.200;2022-12-20T12:45:00;5.85;;;2.05;;
9485;SDS011;4781;48.776;9.200;2022-12-20T12:47:59;5.62;;;2.47;;
9485;SDS011;4781;48.776;9.200;2022-12-20T12:50:28;5.72;;;2.17;;
9485;SDS011;4781;48.776;9.200;2022-12-20T12:53:12;4.20;;;2.20;;
9485;SDS011;4781;48.776;9.200;2022-12-20T12:55:47;5.33;;;2.00;;
9485;SDS011;4781;48.776;9.200;2022-12-20T13:00:59;4.58;;;2.52;;
9485;SDS011;4781;48.776;9.200;2022-12-20T13:11:37;3.75;;;1.70;;
9485;SDS011;4781;48.776;9.200;2022-12-20T13:19:36;6.08;;;2.30;;
9485;SDS011;4781;48.776;9.200;2022-12-20T13:24:52;3.72;;;1.62;;
9485;SDS011;4781;48.776;9.200;2022-12-20T13:27:27;6.67;;;1.45;;
9485;SDS011;4781;48.776;9.200;2022-12-20T13:37:58;7.20;;;1.72;;
9485;SDS011;4781;48.776;9.200;2022-12-20T13:40:47;3.35;;;1.60;;
9485;SDS011;4781;48.776;9.200;2022-12-20T13:43:27;6.33;;;1.90;;
9485;SDS011;4781;48.776;9.200;2022-12-20T13:46:03;3.45;;;1.67;;
9485;SDS011;4781;48.776;9.200;2022-12-20T13:48:38;8.38;;;2.02;;
9485;SDS011;4781;48.776;9.200;2022-12-20T13:51:05;4.33;;;1.60;;
9485;SDS011;4781;48.776;9.200;2022-12-20T13:53:34;5.97;;;1.72;;
9485;SDS011;4781;48.776;9.200;2022-12-20T13:59:25;3.40;;;1.62;;
9485;SDS011;4781;48.776;9.200;2022-12-20T14:01:56;5.37;;;2.37;;
9485;SDS011;4781;48.776;9.200;2022-12-20T14:04:37;5.25;;;2.35;;
9485;SDS011;4781;48.776;9.200;2022-12-20T14:07:15;4.42;;;2.30;;
9485;SDS011;4781;48.776;9.200;2022-12-20T14:09:45;4.67;;;2.12;;
9485;SDS011;4781;48.776;9.200;2022-12-20T14:12:16;5.10;;;2.75;;
9485;SDS011;4781;48.776;9.200;2022-12-20T14:14:46;5.30;;;1.92;;
9485;SDS011;4781;48.776;9.200;2022-12-20T14:17:17;4.35;;;2.17;;
9485;SDS011;4781;48.776;9.200;2022-12-20T14:20:05;6.35;;;2.40;;
9485;SDS011;4781;48.776;9.200;2022-12-20T14:23:08;7.90;;;2.75;;
9485;SDS011;4781;48.776;9.200;2022-12-20T14:25:45;4.47;;;1.90;;
9485;SDS011;4781;48.776;9.200;2022-12-20T14:28:26;3.90;;;2.05;;
9485;SDS011;4781;48.776;9.200;2022-12-20T14:31:25;5.67;;;2.20;;
9485;SDS011;4781;48.776;9.200;2022-12-20T14:34:03;5.03;;;2.30;;
9485;SDS011;4781;48.776;9.200;2022-12-20T14:36:39;4.15;;;1.90;;
9485;SDS011;4781;48.776;9.200;2022-12-20T14:44:35;8.33;;;2.90;;
9485;SDS011;4781;48.776;9.200;2022-12-20T14:47:12;4.22;;;2.05;;
9485;SDS011;4781;48.776;9.200;2022-12-20T14:49:46;7.45;;;2.17;;
9485;SDS011;4781;48.776;9.200;2022-12-20T14:52:21;4.97;;;2.08;;
9485;SDS011;4781;48.776;9.200;2022-12-20T14:55:16;3.47;;;1.62;;
9485;SDS011;4781;48.776;9.200;2022-12-20T14:57:50;6.47;;;2.27;;
9485;SDS011;4781;48.776;9.200;2022-12-20T15:00:22;4.70;;;2.20;;
9485;SDS011;4781;48.776;9.200;2022-12-20T15:05:48;5.03;;;1.80;;
9485;SDS011;4781;48.776;9.200;2022-12-20T15:08:25;4.28;;;1.67;;
9485;SDS011;4781;48.776;9.200;2022-12-20T15:11:02;4.05;;;1.50;;
9485;SDS011;4781;48.776;9.200;2022-12-20T15:13:43;4.95;;;1.65;;
9485;SDS011;4781;48.776;9.200;2022-12-20T15:16:20;4.30;;;1.85;;
9485;SDS011;4781;48.776;9.200;2022-12-20T15:18:56;4.70;;;1.70;;
9485;SDS011;4781;48.776;9.200;2022-12-20T15:21:42;4.28;;;1.32;;
9485;SDS011;4781;48.776;9.200;2022-12-20T15:24:12;5.58;;;1.60;;
9485;SDS011;4781;48.776;9.200;2022-12-20T15:26:44;3.20;;;1.50;;
9485;SDS011;4781;48.776;9.200;2022-12-20T15:29:18;5.55;;;2.08;;
9485;SDS011;4781;48.776;9.200;2022-12-20T15:31:45;3.45;;;1.55;;
9485;SDS011;4781;48.776;9.200;2022-12-20T15:34:17;2.75;;;1.55;;
9485;SDS011;4781;48.776;9.200;2022-12-20T15:36:53;3.70;;;1.72;;
9485;SDS011;4781;48.776;9.200;2022-12-20T15:39:23;4.15;;;1.85;;
9485;SDS011;4781;48.776;9.200;2022-12-20T15:41:52;2.90;;;1.57;;
9485;SDS011;4781;48.776;9.200;2022-12-20T15:44:22;3.65;;;1.40;;
9485;SDS011;4781;48.776;9.200;2022-12-20T15:46:52;3.47;;;1.40;;
9485;SDS011;4781;48.776;9.200;2022-12-20T15:49:23;6.97;;;1.85;;
9485;SDS011;4781;48.776;9.200;2022-12-20T15:51:54;5.72;;;1.90;;
9485;SDS011;4781;48.776;9.200;2022-12-20T15:54:24;5.08;;;1.75;;
9485;SDS011;4781;48.776;9.200;2022-12-20T15:56:56;4.58;;;2.47;;
9485;SDS011;4781;48.776;9.200;2022-12-20T15:59:32;4.35;;;1.98;;
9485;SDS011;4781;48.776;9.200;2022-12-20T16:02:00;4.87;;;2.00;;
9485;SDS011;4781;48.776;9.200;2022-12-20T16:04:29;7.65;;;2.20;;
9485;SDS011;4781;48.776;9.200;2022-12-20T16:06:57;5.03;;;1.95;;
9485;SDS011;4781;48.776;9.200;2022-12-20T16:09:25;4.45;;;2.20;;
9485;SDS011;4781;48.776;9.200;2022-12-20T16:11:54;3.83;;;2.17;;
9485;SDS011;4781;48.776;9.200;2022-12-20T16:14:22;5.55;;;2.20;;
9485;SDS011;4781;48.776;9.200;2022-12-20T16:16:52;3.70;;;1.80;;
9485;SDS011;4781;48.776;9.200;2022-12-20T16:19:20;4.70;;;2.37;;
9485;SDS011;4781;48.776;9.200;2022-12-20T16:21:50;3.92;;;1.82;;
9485;SDS011;4781;48.776;9.200;2022-12-20T16:24:19;4.50;;;1.90;;
9485;SDS011;4781;48.776;9.200;2022-12-20T16:26:49;4.97;;;1.98;;
9485;SDS011;4781;48.776;9.200;2022-12-20T16:29:17;5.45;;;2.50;;
9485;SDS011;4781;48.776;9.200;2022-12-20T16:31:47;7.00;;;3.60;;
9485;SDS011;4781;48.776;9.200;2022-12-20T16:34:16;11.70;;;5.28;;
9485;SDS011;4781;48.776;9.200;2022-12-20T16:36:46;10.93;;;5.47;;
9485;SDS011;4781;48.776;9.200;2022-12-20T16:39:15;10.58;;;5.87;;
9485;SDS011;4781;48.776;9.200;2022-12-20T16:41:44;12.00;;;6.15;;
9485;SDS011;4781;48.776;9.200;2022-12-20T16:44:13;11.05;;;6.10;;
9485;SDS011;4781;48.776;9.200;2022-12-20T16:46:42;10.20;;;4.87;;
9485;SDS011;4781;48.776;9.200;2022-12-20T16:49:11;11.08;;;4.67;;
9485;SDS011;4781;48.776;9.200;2022-12-20T16:51:41;8.70;;;4.30;;
9485;SDS011;4781;48.776;9.200;2022-12-20T16:54:16;8.45;;;3.27;;
9485;SDS011;4781;48.776;9.200;2022-12-20T16:56:48;6.45;;;2.02;;
9485;SDS011;4781;48.776;9.200;2022-12-20T16:59:19;4.55;;;2.20;;
9485;SDS011;4781;48.776;9.200;2022-12-20T17:01:55;4.47;;;2.12;;
9485;SDS011;4781;48.776;9.200;2022-12-20T17:04:21;3.67;;;2.02;;
9485;SDS011;4781;48.776;9.200;2022-12-20T17:06:51;4.70;;;2.50;;
9485;SDS011;4781;48.776;9.200;2022-12-20T17:09:20;5.80;;;2.10;;
9485;SDS011;4781;48.776;9.200;2022-12-20T17:11:48;4.70;;;2.37;;
9485;SDS011;4781;48.776;9.200;2022-12-20T17:14:16;5.17;;;2.20;;
9485;SDS011;4781;48.776;9.200;2022-12-20T17:16:45;7.05;;;2.33;;
9485;SDS011;4781;48.776;9.200;2022-12-20T17:19:13;5.17;;;2.20;;
9485;SDS011;4781;48.776;9.200;2022-12-20T17:21:43;4.05;;;1.70;;
9485;SDS011;4781;48.776;9.200;2022-12-20T17:24:16;6.95;;;2.08;;
9485;SDS011;4781;48.776;9.200;2022-12-20T17:26:46;7.70;;;2.70;;
9485;SDS011;4781;48.776;9.200;2022-12-20T17:29:15;4.58;;;1.90;;
9485;SDS011;4781;48.776;9.200;2022-12-20T17:31:45;3.90;;;1.85;;
9485;SDS011;4781;48.776;9.200;2022-12-20T17:34:24;4.87;;;2.10;;
9485;SDS011;4781;48.776;9.200;2022-12-20T17:36:57;5.62;;;2.20;;
9485;SDS011;4781;48.776;9.200;2022-12-20T17:39:25;3.92;;;2.25;;